createdAt,value
2017-04-25T00:00:38.946Z,99272
2017-04-25T00:01:39.566Z,99265
2017-04-25T00:02:39.644Z,99266
2017-04-25T00:03:39.129Z,99265
2017-04-25T00:04:39.664Z,99265
2017-04-25T00:05:39.693Z,99266
2017-04-25T00:06:39.832Z,99264
2017-04-25T00:07:39.340Z,99265
2017-04-25T00:08:39.926Z,99263
2017-04-25T00:09:39.490Z,99265
2017-04-25T00:10:39.575Z,99263
2017-04-25T00:11:39.621Z,99268
2017-04-25T00:12:40.212Z,99262
2017-04-25T00:13:40.273Z,99265
2017-04-25T00:14:40.320Z,99254
2017-04-25T00:15:39.804Z,99259
2017-04-25T00:16:40.448Z,99262
2017-04-25T00:17:39.988Z,99258
2017-04-25T00:18:40.016Z,99258
2017-04-25T00:19:40.597Z,99262
2017-04-25T00:20:40.668Z,99258
2017-04-25T00:21:40.746Z,99260
2017-04-25T00:22:40.298Z,99254
2017-04-25T00:23:40.914Z,99253
2017-04-25T00:24:40.394Z,99252
2017-04-25T00:25:40.386Z,99253
2017-04-25T00:26:40.983Z,99245
2017-04-25T00:27:40.469Z,99255
2017-04-25T00:28:40.973Z,99252
2017-04-25T00:29:40.530Z,99266
2017-04-25T00:30:41.171Z,99262
2017-04-25T00:31:40.682Z,99263
2017-04-25T00:32:41.228Z,99263
2017-04-25T00:33:40.705Z,99268
2017-04-25T00:34:40.732Z,99270
2017-04-25T00:35:41.276Z,99262
2017-04-25T00:36:40.729Z,99266
2017-04-25T00:37:40.873Z,99255
2017-04-25T00:38:40.968Z,99264
2017-04-25T00:39:41.478Z,99261
2017-04-25T00:40:41.032Z,99262
2017-04-25T00:41:41.089Z,99264
2017-04-25T00:42:41.160Z,99264
2017-04-25T00:43:41.258Z,99260
2017-04-25T00:44:41.214Z,99259
2017-04-25T00:45:41.834Z,99253
2017-04-25T00:46:41.795Z,99260
2017-04-25T00:47:41.811Z,99260
2017-04-25T00:48:41.367Z,99261
2017-04-25T00:49:41.890Z,99261
2017-04-25T00:50:41.448Z,99269
2017-04-25T00:51:42.040Z,99262
2017-04-25T00:52:42.087Z,99259
2017-04-25T00:53:41.582Z,99263
2017-04-25T00:54:42.209Z,99264
2017-04-25T00:55:41.727Z,99263
2017-04-25T00:56:42.398Z,99259
2017-04-25T00:57:42.462Z,99255
2017-04-25T00:58:42.478Z,99260
2017-04-25T00:59:42.475Z,99260
2017-04-25T01:00:42.039Z,99260
2017-04-25T01:01:42.571Z,99264
2017-04-25T01:02:42.642Z,99266
2017-04-25T01:03:42.204Z,99265
2017-04-25T01:04:42.290Z,99257
2017-04-25T01:05:42.822Z,99258
2017-04-25T01:06:42.914Z,99265
2017-04-25T01:07:42.423Z,99259
2017-04-25T01:08:43.042Z,99260
2017-04-25T01:09:43.752Z,99262
2017-04-25T01:10:42.477Z,99259
2017-04-25T01:11:43.090Z,99259
2017-04-25T01:12:42.609Z,99269
2017-04-25T01:13:42.710Z,99269
2017-04-25T01:14:42.747Z,99267
2017-04-25T01:15:42.770Z,99268
2017-04-25T01:16:43.334Z,99272
2017-04-25T01:17:42.855Z,99276
2017-04-25T01:18:43.457Z,99267
2017-04-25T01:19:42.891Z,99276
2017-04-25T01:20:42.928Z,99274
2017-04-25T01:21:43.548Z,99275
2017-04-25T01:22:43.020Z,99278
2017-04-25T01:23:43.114Z,99279
2017-04-25T01:24:43.667Z,99285
2017-04-25T01:25:43.714Z,99286
2017-04-25T01:26:43.783Z,99291
2017-04-25T01:27:43.847Z,99281
2017-04-25T01:28:43.861Z,99287
2017-04-25T01:29:43.371Z,99286
2017-04-25T01:30:43.459Z,99284
2017-04-25T01:31:43.976Z,99280
2017-04-25T01:32:44.038Z,99271
2017-04-25T01:33:44.058Z,99279
2017-04-25T01:34:43.505Z,99277
2017-04-25T01:35:44.130Z,99282
2017-04-25T01:36:43.606Z,99278
2017-04-25T01:37:43.753Z,99279
2017-04-25T01:38:44.290Z,99277
2017-04-25T01:39:43.828Z,99282
2017-04-25T01:40:43.834Z,99282
2017-04-25T01:41:44.389Z,99281
2017-04-25T01:42:44.474Z,99289
2017-04-25T01:43:43.899Z,99296
2017-04-25T01:44:43.996Z,99296
2017-04-25T01:45:44.533Z,99298
2017-04-25T01:46:44.142Z,99292
2017-04-25T01:47:44.671Z,99295
2017-04-25T01:48:44.761Z,99292
2017-04-25T01:49:44.813Z,99290
2017-04-25T01:50:44.873Z,99289
2017-04-25T01:51:44.370Z,99285
2017-04-25T01:52:44.417Z,99284
2017-04-25T01:53:45.045Z,99281
2017-04-25T01:54:44.472Z,99282
2017-04-25T01:55:45.067Z,99281
2017-04-25T01:56:44.612Z,99283
2017-04-25T01:57:45.298Z,99285
2017-04-25T01:58:45.287Z,99289
2017-04-25T01:59:44.709Z,99286
2017-04-25T02:00:44.748Z,99279
2017-04-25T02:01:44.837Z,99286
2017-04-25T02:02:44.833Z,99283
2017-04-25T02:03:44.923Z,99290
2017-04-25T02:04:45.446Z,99289
2017-04-25T02:05:44.970Z,99284
2017-04-25T02:06:45.485Z,99283
2017-04-25T02:07:45.021Z,99286
2017-04-25T02:08:45.047Z,99289
2017-04-25T02:09:45.133Z,99288
2017-04-25T02:10:45.750Z,99283
2017-04-25T02:11:45.260Z,99289
2017-04-25T02:12:45.362Z,99284
2017-04-25T02:13:45.898Z,99279
2017-04-25T02:14:45.946Z,99287
2017-04-25T02:15:45.969Z,99280
2017-04-25T02:16:46.023Z,99278
2017-04-25T02:17:46.062Z,99285
2017-04-25T02:18:46.062Z,99285
2017-04-25T02:19:46.118Z,99286
2017-04-25T02:20:46.178Z,99285
2017-04-25T02:21:45.729Z,99280
2017-04-25T02:22:46.368Z,99287
2017-04-25T02:23:46.440Z,99287
2017-04-25T02:24:45.939Z,99282
2017-04-25T02:25:46.546Z,99284
2017-04-25T02:26:46.014Z,99283
2017-04-25T02:27:46.689Z,99273
2017-04-25T02:28:46.751Z,99283
2017-04-25T02:29:46.854Z,99284
2017-04-25T02:30:46.336Z,99281
2017-04-25T02:31:46.996Z,99284
2017-04-25T02:32:46.492Z,99285
2017-04-25T02:33:47.131Z,99284
2017-04-25T02:34:46.684Z,99284
2017-04-25T02:35:46.721Z,99281
2017-04-25T02:36:46.855Z,99280
2017-04-25T02:37:46.850Z,99282
2017-04-25T02:38:47.429Z,99276
2017-04-25T02:39:47.555Z,99285
2017-04-25T02:40:47.494Z,99283
2017-04-25T02:41:47.105Z,99283
2017-04-25T02:42:47.679Z,99290
2017-04-25T02:43:47.694Z,99281
2017-04-25T02:44:47.768Z,99290
2017-04-25T02:45:47.254Z,99288
2017-04-25T02:46:47.782Z,99294
2017-04-25T02:47:47.918Z,99292
2017-04-25T02:48:47.419Z,99290
2017-04-25T02:49:47.982Z,99290
2017-04-25T02:50:48.010Z,99285
2017-04-25T02:51:48.044Z,99290
2017-04-25T02:52:48.025Z,99291
2017-04-25T02:53:48.127Z,99292
2017-04-25T02:54:48.121Z,99291
2017-04-25T02:55:47.718Z,99292
2017-04-25T02:56:47.722Z,99292
2017-04-25T02:57:47.853Z,99291
2017-04-25T02:58:48.394Z,99294
2017-04-25T02:59:47.922Z,99285
2017-04-25T03:00:48.501Z,99286
2017-04-25T03:01:48.064Z,99284
2017-04-25T03:02:48.128Z,99293
2017-04-25T03:03:48.649Z,99291
2017-04-25T03:04:48.169Z,99285
2017-04-25T03:05:48.199Z,99287
2017-04-25T03:06:48.277Z,99287
2017-04-25T03:07:48.318Z,99277
2017-04-25T03:08:48.353Z,99288
2017-04-25T03:09:48.898Z,99285
2017-04-25T03:10:48.903Z,99288
2017-04-25T03:11:48.399Z,99281
2017-04-25T03:12:49.005Z,99282
2017-04-25T03:13:48.991Z,99282
2017-04-25T03:14:48.461Z,99283
2017-04-25T03:15:49.090Z,99287
2017-04-25T03:16:48.635Z,99290
2017-04-25T03:17:48.666Z,99290
2017-04-25T03:18:49.242Z,99292
2017-04-25T03:19:49.381Z,99290
2017-04-25T03:20:49.388Z,99291
2017-04-25T03:21:49.451Z,99288
2017-04-25T03:22:48.904Z,99286
2017-04-25T03:23:49.561Z,99283
2017-04-25T03:24:49.640Z,99277
2017-04-25T03:25:49.703Z,99284
2017-04-25T03:26:49.766Z,99281
2017-04-25T03:27:49.826Z,99288
2017-04-25T03:28:49.889Z,99286
2017-04-25T03:29:49.406Z,99289
2017-04-25T03:30:49.453Z,99286
2017-04-25T03:31:50.047Z,99284
2017-04-25T03:32:50.058Z,99286
2017-04-25T03:33:50.147Z,99286
2017-04-25T03:34:49.693Z,99283
2017-04-25T03:35:50.288Z,99285
2017-04-25T03:36:50.340Z,99283
2017-04-25T03:37:50.441Z,99286
2017-04-25T03:38:49.946Z,99286
2017-04-25T03:39:50.608Z,99282
2017-04-25T03:40:50.132Z,99283
2017-04-25T03:41:50.706Z,99293
2017-04-25T03:42:50.277Z,99289
2017-04-25T03:43:50.257Z,99285
2017-04-25T03:44:50.840Z,99294
2017-04-25T03:45:50.889Z,99295
2017-04-25T03:46:50.449Z,99295
2017-04-25T03:47:50.990Z,99290
2017-04-25T03:48:51.061Z,99278
2017-04-25T03:49:51.145Z,99289
2017-04-25T03:50:51.172Z,99283
2017-04-25T03:51:51.241Z,99285
2017-04-25T03:52:51.293Z,99286
2017-04-25T03:53:51.353Z,99282
2017-04-25T03:54:50.867Z,99284
2017-04-25T03:55:51.547Z,99277
2017-04-25T03:56:51.103Z,99287
2017-04-25T03:57:51.639Z,99283
2017-04-25T03:58:51.724Z,99284
2017-04-25T03:59:51.766Z,99282
2017-04-25T04:00:51.271Z,99278
2017-04-25T04:01:51.280Z,99277
2017-04-25T04:02:51.890Z,99280
2017-04-25T04:03:51.982Z,99273
2017-04-25T04:04:51.460Z,99279
2017-04-25T04:05:52.124Z,99273
2017-04-25T04:06:52.182Z,99276
2017-04-25T04:07:52.227Z,99276
2017-04-25T04:08:52.296Z,99278
2017-04-25T04:09:51.760Z,99278
2017-04-25T04:10:51.854Z,99276
2017-04-25T04:11:51.889Z,99277
2017-04-25T04:12:52.433Z,99281
2017-04-25T04:13:52.544Z,99276
2017-04-25T04:14:52.096Z,99273
2017-04-25T04:15:52.615Z,99274
2017-04-25T04:16:52.684Z,99275
2017-04-25T04:17:52.669Z,99273
2017-04-25T04:18:52.738Z,99270
2017-04-25T04:19:52.846Z,99279
2017-04-25T04:20:52.334Z,99280
2017-04-25T04:21:52.430Z,99276
2017-04-25T04:22:53.034Z,99284
2017-04-25T04:23:53.106Z,99283
2017-04-25T04:24:52.570Z,99277
2017-04-25T04:25:53.195Z,99283
2017-04-25T04:26:53.324Z,99285
2017-04-25T04:27:52.820Z,99283
2017-04-25T04:28:52.847Z,99290
2017-04-25T04:29:53.343Z,99292
2017-04-25T04:30:52.849Z,99295
2017-04-25T04:31:52.968Z,99287
2017-04-25T04:32:53.049Z,99300
2017-04-25T04:33:53.114Z,99294
2017-04-25T04:34:53.668Z,99296
2017-04-25T04:35:53.725Z,99296
2017-04-25T04:36:53.288Z,99300
2017-04-25T04:37:53.257Z,99292
2017-04-25T04:38:53.365Z,99292
2017-04-25T04:39:53.423Z,99293
2017-04-25T04:40:53.375Z,99295
2017-04-25T04:41:53.388Z,99299
2017-04-25T04:42:54.062Z,99296
2017-04-25T04:43:54.054Z,99295
2017-04-25T04:44:53.630Z,99294
2017-04-25T04:45:54.174Z,99302
2017-04-25T04:46:54.197Z,99301
2017-04-25T04:47:54.250Z,99304
2017-04-25T04:48:54.243Z,99295
2017-04-25T04:49:54.313Z,99308
2017-04-25T04:50:53.822Z,99300
2017-04-25T04:51:54.450Z,99300
2017-04-25T04:52:53.941Z,99307
2017-04-25T04:53:53.916Z,99304
2017-04-25T04:54:54.534Z,99304
2017-04-25T04:55:54.553Z,99308
2017-04-25T04:56:54.061Z,99309
2017-04-25T04:57:54.118Z,99311
2017-04-25T04:58:54.186Z,99312
2017-04-25T04:59:54.806Z,99298
2017-04-25T05:00:54.830Z,99308
2017-04-25T05:01:54.892Z,99307
2017-04-25T05:02:55.249Z,99305
2017-04-25T05:03:54.485Z,99309
2017-04-25T05:04:55.019Z,99310
2017-04-25T05:05:54.583Z,99308
2017-04-25T05:06:55.174Z,99301
2017-04-25T05:07:54.790Z,99310
2017-04-25T05:08:54.763Z,99319
2017-04-25T05:09:55.412Z,99309
2017-04-25T05:10:54.911Z,99308
2017-04-25T05:11:55.557Z,99310
2017-04-25T05:12:55.650Z,99308
2017-04-25T05:13:55.186Z,99310
2017-04-25T05:14:55.941Z,99311
2017-04-25T05:15:55.304Z,99318
2017-04-25T05:16:55.283Z,99316
2017-04-25T05:17:55.380Z,99314
2017-04-25T05:18:55.471Z,99307
2017-04-25T05:19:55.476Z,99319
2017-04-25T05:20:55.544Z,99316
2017-04-25T05:21:55.675Z,99310
2017-04-25T05:22:56.234Z,99317
2017-04-25T05:23:55.792Z,99319
2017-04-25T05:24:56.352Z,99306
2017-04-25T05:25:55.883Z,99319
2017-04-25T05:26:56.640Z,99321
2017-04-25T05:27:56.546Z,99320
2017-04-25T05:28:57.138Z,99326
2017-04-25T05:29:55.979Z,99325
2017-04-25T05:30:56.537Z,99328
2017-04-25T05:31:57.293Z,99325
2017-04-25T05:32:57.552Z,99321
2017-04-25T05:33:57.563Z,99326
2017-04-25T05:34:56.699Z,99324
2017-04-25T05:35:56.234Z,99325
2017-04-25T05:36:56.765Z,99331
2017-04-25T05:37:56.795Z,99328
2017-04-25T05:38:56.452Z,99331
2017-04-25T05:39:56.351Z,99329
2017-04-25T05:40:57.557Z,99330
2017-04-25T05:41:57.043Z,99328
2017-04-25T05:42:57.122Z,99334
2017-04-25T05:43:57.129Z,99339
2017-04-25T05:44:56.707Z,99326
2017-04-25T05:45:57.239Z,99333
2017-04-25T05:46:57.215Z,99334
2017-04-25T05:47:56.803Z,99334
2017-04-25T05:48:56.839Z,99333
2017-04-25T05:49:57.383Z,99330
2017-04-25T05:50:57.401Z,99335
2017-04-25T05:51:59.228Z,99339
2017-04-25T05:52:57.076Z,99327
2017-04-25T05:53:58.005Z,99340
2017-04-25T05:54:57.505Z,99339
2017-04-25T05:55:57.001Z,99337
2017-04-25T05:56:57.165Z,99339
2017-04-25T05:57:57.109Z,99340
2017-04-25T05:58:57.161Z,99340
2017-04-25T05:59:57.272Z,99337
2017-04-25T06:00:57.299Z,99347
2017-04-25T06:01:58.014Z,99346
2017-04-25T06:02:57.397Z,99351
2017-04-25T06:03:58.124Z,99348
2017-04-25T06:04:57.534Z,99343
2017-04-25T06:05:57.602Z,99355
2017-04-25T06:06:58.236Z,99348
2017-04-25T06:07:58.266Z,99351
2017-04-25T06:08:57.827Z,99355
2017-04-25T06:09:57.864Z,99345
2017-04-25T06:10:58.530Z,99352
2017-04-25T06:11:58.580Z,99350
2017-04-25T06:12:58.635Z,99347
2017-04-25T06:13:58.887Z,99352
2017-04-25T06:15:00.160Z,99353
2017-04-25T06:15:58.626Z,99361
2017-04-25T06:16:58.770Z,99355
2017-04-25T06:18:03.643Z,99357
2017-04-25T06:18:59.398Z,99355
2017-04-25T06:19:58.281Z,99357
2017-04-25T06:20:58.315Z,99357
2017-04-25T06:22:01.832Z,99363
2017-04-25T06:23:00.162Z,99362
2017-04-25T06:23:58.436Z,99364
2017-04-25T06:24:58.487Z,99358
2017-04-25T06:25:59.362Z,99368
2017-04-25T06:27:01.987Z,99368
2017-04-25T06:28:00.517Z,99372
2017-04-25T06:28:59.295Z,99364
2017-04-25T06:29:59.193Z,99370
2017-04-25T06:30:58.846Z,99371
2017-04-25T06:31:59.101Z,99377
2017-04-25T06:32:59.420Z,99369
2017-04-25T06:34:59.935Z,99375
2017-04-25T06:35:58.911Z,99381
2017-04-25T06:36:59.548Z,99382
2017-04-25T06:37:59.725Z,99372
2017-04-25T06:38:59.555Z,99377
2017-04-25T06:40:00.931Z,99377
2017-04-25T06:41:06.625Z,99387
2017-04-25T06:42:00.912Z,99381
2017-04-25T06:43:07.409Z,99386
2017-04-25T06:43:59.285Z,99390
2017-04-25T06:45:59.954Z,99388
2017-04-25T06:46:59.459Z,99388
2017-04-25T06:48:03.692Z,99385
2017-04-25T06:49:00.500Z,99385
2017-04-25T06:51:00.936Z,99388
2017-04-25T06:53:00.642Z,99383
2017-04-25T06:54:00.423Z,99386
2017-04-25T06:56:00.594Z,99386
2017-04-25T06:57:00.014Z,99390
2017-04-25T06:58:01.629Z,99391
2017-04-25T06:59:00.152Z,99396
2017-04-25T07:00:01.584Z,99394
2017-04-25T07:01:00.655Z,99382
2017-04-25T07:02:00.773Z,99384
2017-04-25T07:03:00.973Z,99387
2017-04-25T07:04:00.329Z,99389
2017-04-25T07:05:00.333Z,99398
2017-04-25T07:06:00.382Z,99395
2017-04-25T07:07:01.242Z,99388
2017-04-25T07:08:02.595Z,99396
2017-04-25T07:09:02.455Z,99393
2017-04-25T07:10:00.602Z,99389
2017-04-25T07:11:00.574Z,99404
2017-04-25T07:12:00.634Z,99401
2017-04-25T07:13:01.277Z,99399
2017-04-25T07:14:00.707Z,99395
2017-04-25T07:15:01.782Z,99391
2017-04-25T07:16:00.874Z,99407
2017-04-25T07:17:01.000Z,99397
2017-04-25T07:18:01.536Z,99404
2017-04-25T07:19:01.105Z,99403
2017-04-25T07:20:01.626Z,99397
2017-04-25T07:21:02.430Z,99398
2017-04-25T07:22:01.248Z,99412
2017-04-25T07:23:02.663Z,99407
2017-04-25T07:24:02.260Z,99407
2017-04-25T07:25:01.458Z,99401
2017-04-25T07:26:01.387Z,99404
2017-04-25T07:27:01.484Z,99411
2017-04-25T07:28:04.041Z,99411
2017-04-25T07:29:03.696Z,99412
2017-04-25T07:30:02.681Z,99412
2017-04-25T07:31:05.180Z,99402
2017-04-25T07:32:02.184Z,99404
2017-04-25T07:34:01.715Z,99410
2017-04-25T07:35:02.884Z,99403
2017-04-25T07:36:01.805Z,99405
2017-04-25T07:37:02.346Z,99405
2017-04-25T07:38:04.353Z,99408
2017-04-25T07:39:03.036Z,99417
2017-04-25T07:40:02.578Z,99422
2017-04-25T07:41:02.592Z,99418
2017-04-25T07:42:03.539Z,99421
2017-04-25T07:43:02.184Z,99415
2017-04-25T07:44:03.373Z,99425
2017-04-25T07:45:03.451Z,99430
2017-04-25T07:46:03.073Z,99418
2017-04-25T07:47:02.285Z,99424
2017-04-25T07:48:03.036Z,99435
2017-04-25T07:49:02.465Z,99427
2017-04-25T07:50:02.419Z,99432
2017-04-25T07:51:03.056Z,99433
2017-04-25T07:52:03.124Z,99425
2017-04-25T07:53:02.582Z,99415
2017-04-25T07:54:03.151Z,99422
2017-04-25T07:55:03.325Z,99427
2017-04-25T07:56:03.397Z,99427
2017-04-25T07:57:05.250Z,99430
2017-04-25T07:58:03.928Z,99432
2017-04-25T07:59:04.027Z,99428
2017-04-25T08:00:04.246Z,99430
2017-04-25T08:01:02.890Z,99431
2017-04-25T08:02:02.964Z,99435
2017-04-25T08:03:03.580Z,99426
2017-04-25T08:04:03.010Z,99435
2017-04-25T08:05:03.552Z,99434
2017-04-25T08:06:04.119Z,99438
2017-04-25T08:07:03.133Z,99404
2017-04-25T08:08:03.199Z,99442
2017-04-25T08:09:04.007Z,99436
2017-04-25T08:10:05.576Z,99442
2017-04-25T08:11:05.035Z,99440
2017-04-25T08:12:04.988Z,99446
2017-04-25T08:13:07.813Z,99449
2017-04-25T08:14:05.777Z,99450
2017-04-25T08:15:06.676Z,99445
2017-04-25T08:16:06.561Z,99448
2017-04-25T08:17:05.971Z,99445
2017-04-25T08:18:05.675Z,99449
2017-04-25T08:19:05.066Z,99443
2017-04-25T08:20:07.792Z,99444
2017-04-25T08:21:04.927Z,99436
2017-04-25T08:22:05.409Z,99438
2017-04-25T08:23:04.925Z,99444
2017-04-25T08:24:05.525Z,99442
2017-04-25T08:25:06.560Z,99437
2017-04-25T08:26:05.733Z,99440
2017-04-25T08:27:05.702Z,99435
2017-04-25T08:28:06.593Z,99440
2017-04-25T08:29:05.826Z,99437
2017-04-25T08:30:05.909Z,99426
2017-04-25T08:31:05.433Z,99433
2017-04-25T08:32:06.676Z,99433
2017-04-25T08:33:09.732Z,99433
2017-04-25T08:34:07.818Z,99435
2017-04-25T08:35:07.413Z,99440
2017-04-25T08:36:08.476Z,99429
2017-04-25T08:37:07.572Z,99438
2017-04-25T08:38:09.694Z,99438
2017-04-25T08:39:08.618Z,99439
2017-04-25T08:40:08.176Z,99432
2017-04-25T08:41:10.178Z,99432
2017-04-25T08:42:08.631Z,99428
2017-04-25T08:43:06.082Z,99438
2017-04-25T08:44:06.058Z,99439
2017-04-25T08:45:09.025Z,99446
2017-04-25T08:46:07.956Z,99438
2017-04-25T08:47:08.111Z,99442
2017-04-25T08:48:07.129Z,99443
2017-04-25T08:49:08.160Z,99432
2017-04-25T08:50:10.543Z,99432
2017-04-25T08:51:07.405Z,99424
2017-04-25T08:52:12.886Z,99432
2017-04-25T08:53:07.334Z,99434
2017-04-25T08:54:07.601Z,99434
2017-04-25T08:55:07.503Z,99429
2017-04-25T08:56:07.058Z,99432
2017-04-25T08:57:08.378Z,99426
2017-04-25T08:58:08.152Z,99438
2017-04-25T08:59:09.643Z,99426
2017-04-25T09:00:08.271Z,99435
2017-04-25T09:01:07.800Z,99431
2017-04-25T09:02:08.098Z,99433
2017-04-25T09:03:08.393Z,99440
2017-04-25T09:04:09.913Z,99431
2017-04-25T09:05:09.519Z,99430
2017-04-25T09:06:08.215Z,99431
2017-04-25T09:07:08.193Z,99432
2017-04-25T09:08:09.417Z,99432
2017-04-25T09:09:08.048Z,99437
2017-04-25T09:10:09.272Z,99433
2017-04-25T09:11:08.398Z,99436
2017-04-25T09:12:08.827Z,99432
2017-04-25T09:13:07.902Z,99430
2017-04-25T09:14:07.809Z,99437
2017-04-25T09:16:08.494Z,99433
2017-04-25T09:17:09.157Z,99434
2017-04-25T09:18:08.799Z,99437
2017-04-25T09:19:12.340Z,99439
2017-04-25T09:20:09.229Z,99438
2017-04-25T09:21:09.028Z,99447
2017-04-25T09:22:09.459Z,99446
2017-04-25T09:23:12.046Z,99449
2017-04-25T09:24:11.136Z,99448
2017-04-25T09:26:11.188Z,99447
2017-04-25T09:27:09.374Z,99448
2017-04-25T09:28:10.431Z,99449
2017-04-25T09:29:10.666Z,99453
2017-04-25T09:30:11.656Z,99448
2017-04-25T09:31:10.534Z,99445
2017-04-25T09:32:14.682Z,99450
2017-04-25T09:33:15.561Z,99461
2017-04-25T09:34:10.388Z,99466
2017-04-25T09:35:10.975Z,99469
2017-04-25T09:36:12.188Z,99458
2017-04-25T09:37:12.568Z,99473
2017-04-25T09:38:11.944Z,99465
2017-04-25T09:39:12.028Z,99465
2017-04-25T09:40:11.363Z,99477
2017-04-25T09:41:13.076Z,99473
2017-04-25T09:42:09.970Z,99472
2017-04-25T09:43:12.204Z,99471
2017-04-25T09:44:11.891Z,99467
2017-04-25T09:45:11.678Z,99496
2017-04-25T09:46:11.671Z,99475
2017-04-25T09:47:12.431Z,99467
2017-04-25T09:48:12.731Z,99481
2017-04-25T09:49:12.865Z,99481
2017-04-25T09:50:16.488Z,99458
2017-04-25T09:51:13.747Z,99475
2017-04-25T09:52:14.623Z,99478
2017-04-25T09:53:16.099Z,99481
2017-04-25T10:12:17.700Z,99484
2017-04-25T10:13:18.449Z,99480
2017-04-25T10:19:18.256Z,99489
2017-04-25T10:20:15.743Z,99484
2017-04-25T10:24:19.611Z,99497
2017-04-25T10:29:17.688Z,99476
2017-04-25T10:30:17.795Z,99487
2017-04-25T10:33:15.601Z,99477
2017-04-25T10:38:19.343Z,99477
2017-04-25T10:40:19.738Z,99475
2017-04-25T10:46:19.175Z,99484
2017-04-25T10:48:21.752Z,99488
2017-04-25T10:50:20.211Z,99496
2017-04-25T10:54:16.825Z,99483
2017-04-25T10:58:20.343Z,99496
2017-04-25T11:00:20.304Z,99503
2017-04-25T11:16:19.749Z,99531
2017-04-25T11:17:19.747Z,99512
2017-04-25T11:23:20.265Z,99530
2017-04-25T11:29:21.329Z,99529
2017-04-25T11:30:21.016Z,99536
2017-04-25T11:33:18.787Z,99528
2017-04-25T11:34:19.830Z,99529
2017-04-25T11:36:18.614Z,99524
2017-04-25T11:37:18.520Z,99519
2017-04-25T11:39:20.794Z,99521
2017-04-25T11:40:22.020Z,99522
2017-04-25T11:42:21.235Z,99521
2017-04-25T11:43:18.411Z,99530
2017-04-25T11:44:17.272Z,99528
2017-04-25T11:45:17.363Z,99537
2017-04-25T11:46:17.267Z,99537
2017-04-25T11:47:15.326Z,99533
2017-04-25T11:48:16.068Z,99526
2017-04-25T11:49:15.394Z,99527
2017-04-25T11:50:16.064Z,99516
2017-04-25T11:51:16.717Z,99525
2017-04-25T11:52:15.465Z,99522
2017-04-25T11:53:17.401Z,99525
2017-04-25T11:54:18.017Z,99518
2017-04-25T11:55:16.326Z,99536
2017-04-25T11:56:18.501Z,99536
2017-04-25T11:59:22.078Z,99577
2017-04-25T12:00:21.454Z,99564
2017-04-25T12:01:20.668Z,99588
2017-04-25T12:02:21.285Z,99595
2017-04-25T12:03:19.778Z,99607
2017-04-25T12:04:16.846Z,99598
2017-04-25T12:05:20.794Z,99624
2017-04-25T12:06:20.003Z,99615
2017-04-25T12:08:20.395Z,99624
2017-04-25T12:09:21.900Z,99631
2017-04-25T12:11:23.747Z,99640
2017-04-25T12:13:23.825Z,99641
2017-04-25T12:17:22.212Z,99649
2017-04-25T12:22:21.833Z,99650
2017-04-25T12:24:23.295Z,99645
2017-04-25T12:25:23.210Z,99641
2017-04-25T12:26:23.561Z,99635
2017-04-25T12:33:24.171Z,99623
2017-04-25T12:42:24.022Z,99600
2017-04-25T12:43:22.954Z,99607
2017-04-25T12:45:24.144Z,99590
2017-04-25T12:46:26.271Z,99594
2017-04-25T12:50:22.390Z,99590
2017-04-25T12:51:27.488Z,99594
2017-04-25T12:53:25.094Z,99592
2017-04-25T13:00:23.032Z,99597
2017-04-25T13:05:25.458Z,99596
2017-04-25T13:37:17.766Z,99606
2017-04-25T13:38:15.493Z,99605
2017-04-25T13:39:16.215Z,99608
2017-04-25T13:40:14.450Z,99600
2017-04-25T13:41:15.007Z,99606
2017-04-25T13:42:14.442Z,99604
2017-04-25T13:43:15.722Z,99602
2017-04-25T13:44:15.882Z,99596
2017-04-25T13:45:15.824Z,99602
2017-04-25T13:46:18.636Z,99596
2017-04-25T13:47:15.309Z,99604
2017-04-25T13:48:14.865Z,99606
2017-04-25T13:49:15.507Z,99601
2017-04-25T13:50:14.982Z,99603
2017-04-25T13:51:15.018Z,99605
2017-04-25T13:52:16.927Z,99608
2017-04-25T13:53:16.342Z,99604
2017-04-25T13:54:16.481Z,99601
2017-04-25T13:55:15.200Z,99604
2017-04-25T13:56:16.409Z,99604
2017-04-25T13:57:15.811Z,99605
2017-04-25T13:58:16.379Z,99599
2017-04-25T13:59:15.352Z,99604
2017-04-25T14:00:16.607Z,99600
2017-04-25T14:02:16.174Z,99602
2017-04-25T14:03:20.878Z,99600
2017-04-25T14:04:15.664Z,99595
2017-04-25T14:05:15.658Z,99592
2017-04-25T14:06:17.548Z,99597
2017-04-25T14:09:18.593Z,99591
2017-04-25T14:10:17.678Z,99585
2017-04-25T14:11:17.219Z,99584
2017-04-25T14:12:19.022Z,99580
2017-04-25T14:13:20.694Z,99580
2017-04-25T14:14:17.791Z,99587
2017-04-25T14:15:16.875Z,99581
2017-04-25T14:16:17.545Z,99581
2017-04-25T14:17:17.831Z,99579
2017-04-25T14:18:18.065Z,99583
2017-04-25T14:20:18.841Z,99581
2017-04-25T14:21:16.575Z,99588
2017-04-25T14:22:21.004Z,99591
2017-04-25T14:23:17.872Z,99586
2017-04-25T14:24:17.762Z,99591
2017-04-25T14:25:18.805Z,99582
2017-04-25T14:26:18.037Z,99584
2017-04-25T14:27:17.454Z,99590
2017-04-25T14:28:16.901Z,99589
2017-04-25T14:29:20.280Z,99589
2017-04-25T14:30:18.740Z,99594
2017-04-25T14:31:17.652Z,99596
2017-04-25T14:32:20.713Z,99596
2017-04-25T14:34:17.763Z,99597
2017-04-25T14:36:18.497Z,99586
2017-04-25T14:37:19.841Z,99588
2017-04-25T14:39:17.371Z,99596
2017-04-25T14:41:20.106Z,99596
2017-04-25T14:42:17.596Z,99596
2017-04-25T14:43:18.640Z,99593
2017-04-25T14:45:18.213Z,99587
2017-04-25T14:47:18.942Z,99590
2017-04-25T14:48:19.382Z,99597
2017-04-25T14:49:18.535Z,99592
2017-04-25T14:50:17.829Z,99594
2017-04-25T14:51:17.988Z,99592
2017-04-25T14:52:20.181Z,99592
2017-04-25T14:53:18.543Z,99584
2017-04-25T14:54:18.601Z,99585
2017-04-25T14:55:18.588Z,99582
2017-04-25T14:56:19.323Z,99599
2017-04-25T14:57:18.120Z,99582
2017-04-25T14:58:19.023Z,99573
2017-04-25T15:00:19.482Z,99584
2017-04-25T15:01:18.303Z,99586
2017-04-25T15:03:19.014Z,99599
2017-04-25T15:04:19.335Z,99595
2017-04-25T15:05:19.180Z,99597
2017-04-25T15:06:19.768Z,99599
2017-04-25T15:07:19.223Z,99588
2017-04-25T15:08:19.237Z,99596
2017-04-25T15:09:18.714Z,99592
2017-04-25T15:10:19.113Z,99587
2017-04-25T15:11:18.772Z,99597
2017-04-25T15:12:20.780Z,99598
2017-04-25T15:13:20.051Z,99598
2017-04-25T15:15:18.951Z,99604
2017-04-25T15:16:19.315Z,99601
2017-04-25T15:17:20.728Z,99604
2017-04-25T15:18:19.727Z,99602
2017-04-25T15:19:19.130Z,99604
2017-04-25T15:20:19.738Z,99603
2017-04-25T15:21:19.840Z,99598
2017-04-25T15:22:21.233Z,99605
2017-04-25T15:23:20.075Z,99601
2017-04-25T15:24:20.494Z,99588
2017-04-25T15:25:20.021Z,99602
2017-04-25T15:26:20.055Z,99600
2017-04-25T15:27:20.105Z,99598
2017-04-25T15:28:20.671Z,99604
2017-04-25T15:29:19.982Z,99603
2017-04-25T15:30:21.567Z,99606
2017-04-25T15:31:20.278Z,99610
2017-04-25T15:32:20.400Z,99605
2017-04-25T15:33:20.400Z,99607
2017-04-25T15:34:21.704Z,99606
2017-04-25T15:36:20.655Z,99617
2017-04-25T15:37:21.358Z,99611
2017-04-25T15:39:20.725Z,99612
2017-04-25T15:40:20.530Z,99618
2017-04-25T15:41:20.867Z,99616
2017-04-25T15:42:20.869Z,99617
2017-04-25T15:43:20.330Z,99618
2017-04-25T15:44:21.011Z,99617
2017-04-25T15:45:20.964Z,99618
2017-04-25T15:46:21.418Z,99607
2017-04-25T15:47:21.130Z,99617
2017-04-25T15:48:21.850Z,99620
2017-04-25T15:49:21.313Z,99624
2017-04-25T15:50:22.811Z,99617